createdAt,value
2023-03-22T00:00:56.800Z,9.95
2023-03-22T00:05:58.681Z,9.82
2023-03-22T00:11:00.813Z,9.77
2023-03-22T00:16:03.207Z,9.68
2023-03-22T00:21:05.609Z,10.15
2023-03-22T00:26:09.379Z,9.77
2023-03-22T00:31:11.388Z,9.82
2023-03-22T00:36:13.370Z,9.77
2023-03-22T00:41:20.820Z,9.60
2023-03-22T00:46:22.621Z,9.40
2023-03-22T00:51:24.461Z,9.52
2023-03-22T00:56:28.707Z,9.13
2023-03-22T01:01:30.611Z,9.45
2023-03-22T01:06:39.652Z,8.88
2023-03-22T01:11:43.072Z,8.88
2023-03-22T01:16:44.959Z,8.23
2023-03-22T01:21:47.403Z,8.80
2023-03-22T01:26:49.324Z,8.85
2023-03-22T01:31:51.219Z,7.68
2023-03-22T01:36:54.099Z,7.75
2023-03-22T01:41:55.922Z,7.72
2023-03-22T01:46:57.761Z,7.53
2023-03-22T01:52:05.953Z,6.65
2023-03-22T01:57:07.826Z,6.78
2023-03-22T02:02:10.950Z,6.53
2023-03-22T02:07:16.338Z,5.88
2023-03-22T02:12:30.187Z,6.43
2023-03-22T02:17:42.262Z,6.60
2023-03-22T02:22:58.242Z,6.22
2023-03-22T02:28:12.348Z,6.45
2023-03-22T02:33:43.502Z,6.78
2023-03-22T02:39:01.149Z,6.28
2023-03-22T02:44:08.627Z,6.47
2023-03-22T02:49:26.339Z,6.05
2023-03-22T02:54:38.039Z,5.70
2023-03-22T02:59:41.760Z,6.20
2023-03-22T03:04:48.772Z,5.85
2023-03-22T03:09:51.414Z,6.15
2023-03-22T03:14:53.185Z,5.47
2023-03-22T03:20:08.818Z,5.97
2023-03-22T03:25:18.347Z,5.18
2023-03-22T03:30:32.611Z,5.43
2023-03-22T03:35:39.397Z,5.00
2023-03-22T03:40:50.383Z,5.60
2023-03-22T03:45:53.779Z,5.00
2023-03-22T03:50:57.801Z,4.85
2023-03-22T03:55:59.527Z,5.38
2023-03-22T04:01:01.217Z,4.78
2023-03-22T04:06:03.737Z,5.47
2023-03-22T04:11:05.603Z,5.53
2023-03-22T04:16:07.569Z,4.95
2023-03-22T04:21:12.109Z,5.13
2023-03-22T04:26:14.130Z,4.82
2023-03-22T04:31:16.037Z,5.25
2023-03-22T04:36:17.759Z,5.22
2023-03-22T04:41:19.425Z,5.22
2023-03-22T04:46:21.829Z,4.85
2023-03-22T04:51:23.728Z,5.57
2023-03-22T04:56:25.655Z,5.00
2023-03-22T05:01:27.517Z,6.20
2023-03-22T05:06:32.775Z,5.55
2023-03-22T05:11:34.773Z,5.38
2023-03-22T05:16:40.704Z,5.65
2023-03-22T05:21:44.149Z,6.63
2023-03-22T05:26:45.887Z,6.10
2023-03-22T05:31:47.813Z,7.28
2023-03-22T05:36:51.564Z,6.32
2023-03-22T05:41:53.940Z,6.53
2023-03-22T05:46:56.148Z,6.95
2023-03-22T05:51:59.105Z,7.20
2023-03-22T05:57:04.810Z,6.95
2023-03-22T06:02:07.059Z,7.55
2023-03-22T06:07:08.984Z,7.90
2023-03-22T06:12:11.814Z,8.02
2023-03-22T06:17:13.636Z,8.25
2023-03-22T06:22:16.100Z,8.73
2023-03-22T06:27:18.117Z,8.68
2023-03-22T06:32:20.774Z,8.32
2023-03-22T06:37:25.281Z,8.30
2023-03-22T06:42:27.264Z,8.23
2023-03-22T06:47:29.264Z,8.73
2023-03-22T06:52:31.069Z,8.32
2023-03-22T06:57:32.955Z,7.55
2023-03-22T07:02:34.784Z,8.38
2023-03-22T07:07:36.613Z,8.40
2023-03-22T07:12:38.563Z,8.38
2023-03-22T07:17:40.554Z,8.25
2023-03-22T07:22:42.293Z,15.75
2023-03-22T07:27:44.175Z,8.23
2023-03-22T07:32:46.266Z,7.38
2023-03-22T07:37:48.837Z,8.27
2023-03-22T07:42:51.068Z,7.47
2023-03-22T07:47:52.916Z,7.43
2023-03-22T07:52:54.814Z,8.13
2023-03-22T07:57:56.607Z,7.93
2023-03-22T08:02:58.432Z,8.57
2023-03-22T08:08:00.598Z,7.70
2023-03-22T08:13:02.321Z,7.70
2023-03-22T08:18:04.112Z,7.95
2023-03-22T08:23:07.998Z,8.48
2023-03-22T08:28:10.576Z,8.02
2023-03-22T08:33:12.838Z,7.78
2023-03-22T08:38:14.635Z,7.82
2023-03-22T08:43:16.324Z,8.43
2023-03-22T08:48:18.234Z,7.75
2023-03-22T08:53:19.957Z,7.70
2023-03-22T08:58:21.676Z,7.93
2023-03-22T09:03:24.943Z,8.45
2023-03-22T09:08:27.207Z,7.43
2023-03-22T09:13:31.165Z,7.28
2023-03-22T09:18:32.886Z,6.07
2023-03-22T09:23:36.482Z,5.80
2023-03-22T09:28:38.300Z,5.40
2023-03-22T09:33:41.505Z,4.88
2023-03-22T09:38:43.356Z,5.45
2023-03-22T09:43:55.831Z,5.13
2023-03-22T09:49:04.354Z,4.97
2023-03-22T09:54:35.361Z,5.30
2023-03-22T09:59:56.986Z,6.35
2023-03-22T10:04:58.615Z,5.57
2023-03-22T10:10:21.056Z,5.82
2023-03-22T10:15:30.842Z,5.35
2023-03-22T10:21:00.011Z,4.15
2023-03-22T10:26:03.821Z,3.80
2023-03-22T10:31:06.790Z,5.22
2023-03-22T10:36:13.669Z,4.80
2023-03-22T10:41:18.679Z,4.28
2023-03-22T10:46:24.323Z,4.70
2023-03-22T10:52:02.173Z,5.18
2023-03-22T10:57:04.096Z,4.90
2023-03-22T11:02:18.233Z,4.00
2023-03-22T11:07:36.547Z,4.30
2023-03-22T11:12:48.230Z,4.43
2023-03-22T11:17:50.512Z,4.15
2023-03-22T11:22:52.682Z,3.90
2023-03-22T11:28:37.078Z,4.13
2023-03-22T11:33:58.307Z,3.95
2023-03-22T11:39:01.894Z,2.58
2023-03-22T11:44:07.877Z,1.90
2023-03-22T11:49:14.795Z,1.80
2023-03-22T11:54:30.536Z,1.90
2023-03-22T11:59:45.649Z,1.80
2023-03-22T12:04:49.671Z,1.70
2023-03-22T12:10:06.847Z,1.33
2023-03-22T12:15:17.634Z,1.60
2023-03-22T12:20:29.814Z,1.90
2023-03-22T12:25:35.931Z,1.50
2023-03-22T12:30:47.941Z,1.55
2023-03-22T12:35:55.279Z,2.17
2023-03-22T12:41:00.457Z,1.55
2023-03-22T12:46:05.363Z,1.33
2023-03-22T12:51:09.658Z,1.33
2023-03-22T12:56:24.783Z,1.67
2023-03-22T13:01:47.774Z,1.60
2023-03-22T13:06:53.595Z,1.50
2023-03-22T13:12:17.115Z,1.50
2023-03-22T13:17:25.313Z,1.90
2023-03-22T13:22:29.706Z,2.08
2023-03-22T13:27:50.125Z,1.50
2023-03-22T13:32:56.162Z,1.48
2023-03-22T13:38:07.705Z,2.10
2023-03-22T13:43:26.072Z,1.83
2023-03-22T13:49:02.627Z,1.83
2023-03-22T13:54:21.126Z,1.80
2023-03-22T13:59:30.003Z,1.95
2023-03-22T14:04:53.667Z,2.10
2023-03-22T14:10:06.692Z,2.03
2023-03-22T14:15:15.021Z,2.70
2023-03-22T14:20:23.373Z,2.17
